sensor_id;sensor_type;location;lat;lon;timestamp;P1;durP1;ratioP1;P2;durP2;ratioP2
25567;SDS011;13455;51.480;7.594;2022-10-19T00:01:50;12.68;;;7.20;;
25567;SDS011;13455;51.480;7.594;2022-10-19T00:04:16;12.10;;;6.97;;
25567;SDS011;13455;51.480;7.594;2022-10-19T00:06:43;12.93;;;7.03;;
25567;SDS011;13455;51.480;7.594;2022-10-19T00:09:13;13.13;;;7.50;;
25567;SDS011;13455;51.480;7.594;2022-10-19T00:11:41;15.07;;;8.20;;
25567;SDS011;13455;51.480;7.594;2022-10-19T00:14:09;15.02;;;7.80;;
25567;SDS011;13455;51.480;7.594;2022-10-19T00:16:36;13.63;;;7.50;;
25567;SDS011;13455;51.480;7.594;2022-10-19T00:19:03;21.27;;;7.90;;
25567;SDS011;13455;51.480;7.594;2022-10-19T00:21:29;11.02;;;7.03;;
25567;SDS011;13455;51.480;7.594;2022-10-19T00:23:55;10.80;;;7.07;;
25567;SDS011;13455;51.480;7.594;2022-10-19T00:26:22;11.20;;;6.80;;
25567;SDS011;13455;51.480;7.594;2022-10-19T00:28:48;10.05;;;6.30;;
25567;SDS011;13455;51.480;7.594;2022-10-19T00:31:15;11.90;;;6.70;;
25567;SDS011;13455;51.480;7.594;2022-10-19T00:33:42;10.75;;;6.43;;
25567;SDS011;13455;51.480;7.594;2022-10-19T00:36:17;8.80;;;6.10;;
25567;SDS011;13455;51.480;7.594;2022-10-19T00:38:44;9.00;;;5.97;;
25567;SDS011;13455;51.480;7.594;2022-10-19T00:41:10;8.65;;;6.03;;
25567;SDS011;13455;51.480;7.594;2022-10-19T00:43:53;9.00;;;5.57;;
25567;SDS011;13455;51.480;7.594;2022-10-19T00:46:20;8.13;;;5.00;;
25567;SDS011;13455;51.480;7.594;2022-10-19T00:48:46;9.98;;;4.75;;
25567;SDS011;13455;51.480;7.594;2022-10-19T00:51:12;7.32;;;4.40;;
25567;SDS011;13455;51.480;7.594;2022-10-19T00:53:39;10.85;;;4.70;;
25567;SDS011;13455;51.480;7.594;2022-10-19T00:56:08;15.27;;;5.30;;
25567;SDS011;13455;51.480;7.594;2022-10-19T00:58:35;23.93;;;6.03;;
25567;SDS011;13455;51.480;7.594;2022-10-19T01:01:01;26.23;;;6.10;;
25567;SDS011;13455;51.480;7.594;2022-10-19T01:03:28;27.98;;;6.20;;
25567;SDS011;13455;51.480;7.594;2022-10-19T01:05:54;67.28;;;6.40;;
25567;SDS011;13455;51.480;7.594;2022-10-19T01:08:20;40.00;;;6.05;;
25567;SDS011;13455;51.480;7.594;2022-10-19T01:16:11;7.60;;;4.60;;
25567;SDS011;13455;51.480;7.594;2022-10-19T01:18:55;7.18;;;4.45;;
25567;SDS011;13455;51.480;7.594;2022-10-19T01:21:40;6.90;;;4.50;;
25567;SDS011;13455;51.480;7.594;2022-10-19T01:29:08;6.57;;;4.50;;
25567;SDS011;13455;51.480;7.594;2022-10-19T01:36:49;6.90;;;4.67;;
25567;SDS011;13455;51.480;7.594;2022-10-19T01:39:22;8.05;;;4.63;;
25567;SDS011;13455;51.480;7.594;2022-10-19T01:42:11;6.50;;;4.78;;
25567;SDS011;13455;51.480;7.594;2022-10-19T01:44:37;7.75;;;4.63;;
25567;SDS011;13455;51.480;7.594;2022-10-19T01:47:07;7.40;;;4.55;;
25567;SDS011;13455;51.480;7.594;2022-10-19T01:49:40;11.90;;;4.30;;
25567;SDS011;13455;51.480;7.594;2022-10-19T01:52:08;7.65;;;4.80;;
25567;SDS011;13455;51.480;7.594;2022-10-19T01:54:37;9.82;;;4.60;;
25567;SDS011;13455;51.480;7.594;2022-10-19T01:57:06;29.58;;;4.93;;
25567;SDS011;13455;51.480;7.594;2022-10-19T01:59:34;30.45;;;4.53;;
25567;SDS011;13455;51.480;7.594;2022-10-19T02:02:01;55.45;;;4.80;;
25567;SDS011;13455;51.480;7.594;2022-10-19T02:04:28;43.42;;;3.92;;
25567;SDS011;13455;51.480;7.594;2022-10-19T02:06:55;88.43;;;4.65;;
25567;SDS011;13455;51.480;7.594;2022-10-19T02:09:21;115.63;;;4.90;;
25567;SDS011;13455;51.480;7.594;2022-10-19T02:11:52;89.50;;;4.60;;
25567;SDS011;13455;51.480;7.594;2022-10-19T02:14:21;70.45;;;4.68;;
25567;SDS011;13455;51.480;7.594;2022-10-19T02:16:50;58.03;;;4.30;;
25567;SDS011;13455;51.480;7.594;2022-10-19T02:19:17;54.70;;;4.53;;
25567;SDS011;13455;51.480;7.594;2022-10-19T02:21:45;29.40;;;3.90;;
25567;SDS011;13455;51.480;7.594;2022-10-19T02:24:11;29.83;;;3.80;;
25567;SDS011;13455;51.480;7.594;2022-10-19T02:26:37;28.60;;;3.70;;
25567;SDS011;13455;51.480;7.594;2022-10-19T02:29:03;32.40;;;3.60;;
25567;SDS011;13455;51.480;7.594;2022-10-19T02:31:29;31.58;;;4.15;;
25567;SDS011;13455;51.480;7.594;2022-10-19T02:33:55;9.90;;;3.30;;
25567;SDS011;13455;51.480;7.594;2022-10-19T02:36:21;9.68;;;3.33;;
25567;SDS011;13455;51.480;7.594;2022-10-19T02:38:47;18.25;;;3.30;;
25567;SDS011;13455;51.480;7.594;2022-10-19T02:41:18;61.28;;;3.90;;
25567;SDS011;13455;51.480;7.594;2022-10-19T02:43:50;28.50;;;3.40;;
25567;SDS011;13455;51.480;7.594;2022-10-19T02:46:22;70.72;;;4.13;;
25567;SDS011;13455;51.480;7.594;2022-10-19T02:48:49;85.93;;;4.35;;
25567;SDS011;13455;51.480;7.594;2022-10-19T02:52:17;57.53;;;4.15;;
25567;SDS011;13455;51.480;7.594;2022-10-19T02:54:11;51.83;;;4.00;;
25567;SDS011;13455;51.480;7.594;2022-10-19T02:56:37;31.95;;;3.70;;
25567;SDS011;13455;51.480;7.594;2022-10-19T02:59:03;19.50;;;3.60;;
25567;SDS011;13455;51.480;7.594;2022-10-19T03:01:29;24.45;;;3.60;;
25567;SDS011;13455;51.480;7.594;2022-10-19T03:03:55;23.00;;;3.50;;
25567;SDS011;13455;51.480;7.594;2022-10-19T03:06:21;31.08;;;3.95;;
25567;SDS011;13455;51.480;7.594;2022-10-19T03:08:47;13.77;;;4.00;;
25567;SDS011;13455;51.480;7.594;2022-10-19T03:11:13;10.43;;;4.20;;
25567;SDS011;13455;51.480;7.594;2022-10-19T03:13:40;11.27;;;4.40;;
25567;SDS011;13455;51.480;7.594;2022-10-19T03:16:09;9.10;;;4.90;;
25567;SDS011;13455;51.480;7.594;2022-10-19T03:18:36;9.10;;;4.90;;
25567;SDS011;13455;51.480;7.594;2022-10-19T03:21:03;6.95;;;4.75;;
25567;SDS011;13455;51.480;7.594;2022-10-19T03:23:30;8.47;;;4.90;;
25567;SDS011;13455;51.480;7.594;2022-10-19T03:25:56;8.70;;;4.85;;
25567;SDS011;13455;51.480;7.594;2022-10-19T03:28:23;7.57;;;4.80;;
25567;SDS011;13455;51.480;7.594;2022-10-19T03:30:49;8.90;;;4.87;;
25567;SDS011;13455;51.480;7.594;2022-10-19T03:33:14;6.07;;;4.60;;
25567;SDS011;13455;51.480;7.594;2022-10-19T03:35:40;6.72;;;4.90;;
25567;SDS011;13455;51.480;7.594;2022-10-19T03:38:06;9.63;;;4.75;;
25567;SDS011;13455;51.480;7.594;2022-10-19T03:40:32;31.35;;;5.28;;
25567;SDS011;13455;51.480;7.594;2022-10-19T03:42:58;36.63;;;5.60;;
25567;SDS011;13455;51.480;7.594;2022-10-19T03:45:24;61.08;;;5.93;;
25567;SDS011;13455;51.480;7.594;2022-10-19T03:47:50;44.97;;;6.30;;
25567;SDS011;13455;51.480;7.594;2022-10-19T03:50:16;46.78;;;6.40;;
25567;SDS011;13455;51.480;7.594;2022-10-19T03:52:43;71.07;;;6.97;;
25567;SDS011;13455;51.480;7.594;2022-10-19T03:55:09;69.85;;;7.15;;
25567;SDS011;13455;51.480;7.594;2022-10-19T03:57:36;47.13;;;7.07;;
25567;SDS011;13455;51.480;7.594;2022-10-19T04:00:04;38.38;;;6.80;;
25567;SDS011;13455;51.480;7.594;2022-10-19T04:02:30;52.17;;;7.07;;
25567;SDS011;13455;51.480;7.594;2022-10-19T04:04:56;55.53;;;7.18;;
25567;SDS011;13455;51.480;7.594;2022-10-19T04:07:22;86.75;;;7.38;;
25567;SDS011;13455;51.480;7.594;2022-10-19T04:09:48;138.70;;;7.75;;
25567;SDS011;13455;51.480;7.594;2022-10-19T04:12:14;159.15;;;8.00;;
25567;SDS011;13455;51.480;7.594;2022-10-19T04:14:40;203.73;;;9.20;;
25567;SDS011;13455;51.480;7.594;2022-10-19T04:17:06;172.05;;;8.52;;
25567;SDS011;13455;51.480;7.594;2022-10-19T04:19:32;151.40;;;8.60;;
25567;SDS011;13455;51.480;7.594;2022-10-19T04:21:58;207.90;;;9.07;;
25567;SDS011;13455;51.480;7.594;2022-10-19T04:24:24;264.25;;;9.80;;
25567;SDS011;13455;51.480;7.594;2022-10-19T04:26:52;265.38;;;10.13;;
25567;SDS011;13455;51.480;7.594;2022-10-19T04:29:19;237.50;;;9.82;;
25567;SDS011;13455;51.480;7.594;2022-10-19T04:31:46;282.52;;;11.10;;
25567;SDS011;13455;51.480;7.594;2022-10-19T04:34:13;284.85;;;10.45;;
25567;SDS011;13455;51.480;7.594;2022-10-19T04:36:38;274.13;;;10.30;;
25567;SDS011;13455;51.480;7.594;2022-10-19T04:39:05;225.80;;;9.38;;
25567;SDS011;13455;51.480;7.594;2022-10-19T04:41:31;131.95;;;7.97;;
25567;SDS011;13455;51.480;7.594;2022-10-19T04:43:59;215.77;;;9.13;;
25567;SDS011;13455;51.480;7.594;2022-10-19T04:46:25;216.25;;;8.98;;
25567;SDS011;13455;51.480;7.594;2022-10-19T04:48:52;157.33;;;8.43;;
25567;SDS011;13455;51.480;7.594;2022-10-19T04:51:18;139.65;;;8.07;;
25567;SDS011;13455;51.480;7.594;2022-10-19T04:53:44;100.97;;;7.63;;
25567;SDS011;13455;51.480;7.594;2022-10-19T04:56:21;115.10;;;7.88;;
25567;SDS011;13455;51.480;7.594;2022-10-19T04:58:47;125.18;;;7.70;;
25567;SDS011;13455;51.480;7.594;2022-10-19T05:01:14;98.97;;;7.30;;
25567;SDS011;13455;51.480;7.594;2022-10-19T05:03:41;105.32;;;7.90;;
25567;SDS011;13455;51.480;7.594;2022-10-19T05:06:07;95.82;;;7.60;;
25567;SDS011;13455;51.480;7.594;2022-10-19T05:08:33;53.73;;;7.37;;
25567;SDS011;13455;51.480;7.594;2022-10-19T05:11:03;27.42;;;6.80;;
25567;SDS011;13455;51.480;7.594;2022-10-19T05:13:30;23.10;;;7.38;;
25567;SDS011;13455;51.480;7.594;2022-10-19T05:15:57;21.98;;;7.57;;
25567;SDS011;13455;51.480;7.594;2022-10-19T05:18:23;17.73;;;7.68;;
25567;SDS011;13455;51.480;7.594;2022-10-19T05:20:49;14.93;;;8.07;;
25567;SDS011;13455;51.480;7.594;2022-10-19T05:23:16;19.88;;;8.60;;
25567;SDS011;13455;51.480;7.594;2022-10-19T05:25:42;19.55;;;8.50;;
25567;SDS011;13455;51.480;7.594;2022-10-19T05:28:08;23.88;;;9.13;;
25567;SDS011;13455;51.480;7.594;2022-10-19T05:30:34;24.05;;;9.05;;
25567;SDS011;13455;51.480;7.594;2022-10-19T05:33:00;18.17;;;9.70;;
25567;SDS011;13455;51.480;7.594;2022-10-19T05:35:26;18.08;;;9.57;;
25567;SDS011;13455;51.480;7.594;2022-10-19T05:37:55;22.38;;;10.05;;
25567;SDS011;13455;51.480;7.594;2022-10-19T05:40:21;18.90;;;10.40;;
25567;SDS011;13455;51.480;7.594;2022-10-19T05:42:47;21.27;;;11.50;;
25567;SDS011;13455;51.480;7.594;2022-10-19T05:45:13;22.45;;;11.27;;
25567;SDS011;13455;51.480;7.594;2022-10-19T05:47:38;20.02;;;11.63;;
25567;SDS011;13455;51.480;7.594;2022-10-19T05:50:04;20.35;;;11.40;;
25567;SDS011;13455;51.480;7.594;2022-10-19T05:52:31;20.73;;;11.73;;
25567;SDS011;13455;51.480;7.594;2022-10-19T05:54:57;20.15;;;11.93;;
25567;SDS011;13455;51.480;7.594;2022-10-19T05:57:23;21.73;;;11.77;;
25567;SDS011;13455;51.480;7.594;2022-10-19T05:59:49;21.53;;;11.53;;
25567;SDS011;13455;51.480;7.594;2022-10-19T06:02:15;20.58;;;11.18;;
25567;SDS011;13455;51.480;7.594;2022-10-19T06:04:41;18.33;;;10.80;;
25567;SDS011;13455;51.480;7.594;2022-10-19T06:07:07;18.70;;;10.73;;
25567;SDS011;13455;51.480;7.594;2022-10-19T06:09:33;18.90;;;10.60;;
25567;SDS011;13455;51.480;7.594;2022-10-19T06:11:59;18.88;;;10.93;;
25567;SDS011;13455;51.480;7.594;2022-10-19T06:14:25;19.23;;;10.57;;
25567;SDS011;13455;51.480;7.594;2022-10-19T06:16:51;17.90;;;10.47;;
25567;SDS011;13455;51.480;7.594;2022-10-19T06:19:17;19.45;;;10.50;;
25567;SDS011;13455;51.480;7.594;2022-10-19T06:21:44;21.37;;;11.23;;
25567;SDS011;13455;51.480;7.594;2022-10-19T06:24:10;21.17;;;10.88;;
25567;SDS011;13455;51.480;7.594;2022-10-19T06:26:37;21.35;;;11.15;;
25567;SDS011;13455;51.480;7.594;2022-10-19T06:29:03;21.02;;;11.00;;
25567;SDS011;13455;51.480;7.594;2022-10-19T06:31:30;20.15;;;11.52;;
25567;SDS011;13455;51.480;7.594;2022-10-19T06:33:56;20.25;;;11.15;;
25567;SDS011;13455;51.480;7.594;2022-10-19T06:36:23;27.83;;;11.57;;
25567;SDS011;13455;51.480;7.594;2022-10-19T06:38:50;20.93;;;11.70;;
25567;SDS011;13455;51.480;7.594;2022-10-19T06:41:17;20.83;;;11.80;;
25567;SDS011;13455;51.480;7.594;2022-10-19T06:43:47;21.85;;;11.98;;
25567;SDS011;13455;51.480;7.594;2022-10-19T06:46:14;19.42;;;11.30;;
25567;SDS011;13455;51.480;7.594;2022-10-19T06:48:47;20.02;;;11.50;;
25567;SDS011;13455;51.480;7.594;2022-10-19T06:51:13;23.83;;;13.00;;
25567;SDS011;13455;51.480;7.594;2022-10-19T06:53:39;24.13;;;13.27;;
25567;SDS011;13455;51.480;7.594;2022-10-19T06:56:05;22.45;;;13.05;;
25567;SDS011;13455;51.480;7.594;2022-10-19T06:58:35;24.25;;;13.07;;
25567;SDS011;13455;51.480;7.594;2022-10-19T07:01:01;22.00;;;12.88;;
25567;SDS011;13455;51.480;7.594;2022-10-19T07:03:28;19.77;;;12.35;;
25567;SDS011;13455;51.480;7.594;2022-10-19T07:05:55;22.27;;;11.87;;
25567;SDS011;13455;51.480;7.594;2022-10-19T07:08:21;20.20;;;10.90;;
25567;SDS011;13455;51.480;7.594;2022-10-19T07:10:51;15.65;;;9.55;;
25567;SDS011;13455;51.480;7.594;2022-10-19T07:13:17;15.90;;;8.90;;
25567;SDS011;13455;51.480;7.594;2022-10-19T07:15:44;15.55;;;7.97;;
25567;SDS011;13455;51.480;7.594;2022-10-19T07:18:10;14.40;;;8.03;;
25567;SDS011;13455;51.480;7.594;2022-10-19T07:20:36;13.73;;;8.00;;
25567;SDS011;13455;51.480;7.594;2022-10-19T07:23:02;14.30;;;8.43;;
25567;SDS011;13455;51.480;7.594;2022-10-19T07:25:28;15.55;;;8.00;;
25567;SDS011;13455;51.480;7.594;2022-10-19T07:27:55;11.60;;;8.00;;
25567;SDS011;13455;51.480;7.594;2022-10-19T07:30:21;14.40;;;7.90;;
25567;SDS011;13455;51.480;7.594;2022-10-19T07:32:47;13.63;;;8.17;;
25567;SDS011;13455;51.480;7.594;2022-10-19T07:35:13;13.52;;;8.07;;
25567;SDS011;13455;51.480;7.594;2022-10-19T07:37:40;13.55;;;8.15;;
25567;SDS011;13455;51.480;7.594;2022-10-19T07:40:06;13.98;;;7.50;;
25567;SDS011;13455;51.480;7.594;2022-10-19T07:42:32;16.45;;;8.05;;
25567;SDS011;13455;51.480;7.594;2022-10-19T07:45:01;15.20;;;7.85;;
25567;SDS011;13455;51.480;7.594;2022-10-19T07:47:27;15.43;;;7.90;;
25567;SDS011;13455;51.480;7.594;2022-10-19T07:49:53;13.93;;;7.63;;
25567;SDS011;13455;51.480;7.594;2022-10-19T07:52:19;15.63;;;7.93;;
25567;SDS011;13455;51.480;7.594;2022-10-19T07:54:45;12.50;;;8.05;;
25567;SDS011;13455;51.480;7.594;2022-10-19T07:57:13;13.65;;;7.80;;
25567;SDS011;13455;51.480;7.594;2022-10-19T07:59:39;14.05;;;8.02;;
25567;SDS011;13455;51.480;7.594;2022-10-19T08:02:08;13.38;;;7.97;;
25567;SDS011;13455;51.480;7.594;2022-10-19T08:04:38;14.75;;;8.15;;
25567;SDS011;13455;51.480;7.594;2022-10-19T08:07:04;14.07;;;8.23;;
25567;SDS011;13455;51.480;7.594;2022-10-19T08:09:30;14.10;;;8.60;;
25567;SDS011;13455;51.480;7.594;2022-10-19T08:11:56;14.18;;;8.70;;
25567;SDS011;13455;51.480;7.594;2022-10-19T08:14:22;16.15;;;8.90;;
25567;SDS011;13455;51.480;7.594;2022-10-19T08:16:48;15.57;;;8.68;;
25567;SDS011;13455;51.480;7.594;2022-10-19T08:19:15;15.85;;;8.90;;
25567;SDS011;13455;51.480;7.594;2022-10-19T08:21:45;14.05;;;8.23;;
25567;SDS011;13455;51.480;7.594;2022-10-19T08:24:12;15.57;;;8.63;;
25567;SDS011;13455;51.480;7.594;2022-10-19T08:26:39;16.50;;;8.80;;
25567;SDS011;13455;51.480;7.594;2022-10-19T08:31:31;14.68;;;8.50;;
25567;SDS011;13455;51.480;7.594;2022-10-19T08:33:57;15.45;;;8.90;;
25567;SDS011;13455;51.480;7.594;2022-10-19T08:36:23;14.02;;;8.95;;
25567;SDS011;13455;51.480;7.594;2022-10-19T08:38:50;18.88;;;9.07;;
25567;SDS011;13455;51.480;7.594;2022-10-19T08:49:14;16.20;;;8.27;;
25567;SDS011;13455;51.480;7.594;2022-10-19T08:51:42;13.67;;;8.10;;
25567;SDS011;13455;51.480;7.594;2022-10-19T08:54:14;14.07;;;8.17;;
25567;SDS011;13455;51.480;7.594;2022-10-19T08:56:48;14.50;;;8.00;;
25567;SDS011;13455;51.480;7.594;2022-10-19T08:59:29;16.47;;;6.87;;
25567;SDS011;13455;51.480;7.594;2022-10-19T09:02:20;14.73;;;6.90;;
25567;SDS011;13455;51.480;7.594;2022-10-19T09:04:58;14.93;;;7.03;;
25567;SDS011;13455;51.480;7.594;2022-10-19T09:07:33;11.23;;;6.32;;
25567;SDS011;13455;51.480;7.594;2022-10-19T09:18:08;13.40;;;4.93;;
25567;SDS011;13455;51.480;7.594;2022-10-19T09:20:38;8.43;;;4.47;;
25567;SDS011;13455;51.480;7.594;2022-10-19T09:23:27;14.32;;;3.92;;
25567;SDS011;13455;51.480;7.594;2022-10-19T09:25:58;12.77;;;4.43;;
25567;SDS011;13455;51.480;7.594;2022-10-19T09:30:59;8.20;;;3.73;;
25567;SDS011;13455;51.480;7.594;2022-10-19T09:33:32;11.20;;;3.90;;
25567;SDS011;13455;51.480;7.594;2022-10-19T09:35:59;11.73;;;3.90;;
25567;SDS011;13455;51.480;7.594;2022-10-19T09:38:27;7.20;;;3.33;;
25567;SDS011;13455;51.480;7.594;2022-10-19T09:40:56;7.68;;;2.55;;
25567;SDS011;13455;51.480;7.594;2022-10-19T09:43:23;11.55;;;3.00;;
25567;SDS011;13455;51.480;7.594;2022-10-19T09:46:07;8.35;;;2.42;;
25567;SDS011;13455;51.480;7.594;2022-10-19T09:48:51;12.03;;;3.27;;
25567;SDS011;13455;51.480;7.594;2022-10-19T09:51:17;12.15;;;4.40;;
25567;SDS011;13455;51.480;7.594;2022-10-19T09:53:50;9.13;;;1.50;;
25567;SDS011;13455;51.480;7.594;2022-10-19T09:56:21;5.72;;;1.35;;
25567;SDS011;13455;51.480;7.594;2022-10-19T09:58:52;5.35;;;1.48;;
25567;SDS011;13455;51.480;7.594;2022-10-19T10:04:04;7.32;;;1.50;;
25567;SDS011;13455;51.480;7.594;2022-10-19T10:06:30;7.53;;;2.20;;
25567;SDS011;13455;51.480;7.594;2022-10-19T10:08:57;6.97;;;1.70;;
25567;SDS011;13455;51.480;7.594;2022-10-19T10:11:30;9.23;;;1.85;;
25567;SDS011;13455;51.480;7.594;2022-10-19T10:13:58;5.53;;;1.70;;
25567;SDS011;13455;51.480;7.594;2022-10-19T10:16:27;6.55;;;1.60;;
25567;SDS011;13455;51.480;7.594;2022-10-19T10:21:23;6.97;;;1.60;;
25567;SDS011;13455;51.480;7.594;2022-10-19T10:23:57;6.95;;;1.52;;
25567;SDS011;13455;51.480;7.594;2022-10-19T10:26:24;7.65;;;1.40;;
25567;SDS011;13455;51.480;7.594;2022-10-19T10:28:50;5.40;;;1.20;;
25567;SDS011;13455;51.480;7.594;2022-10-19T10:31:21;9.93;;;1.57;;
25567;SDS011;13455;51.480;7.594;2022-10-19T10:33:51;5.80;;;1.20;;
25567;SDS011;13455;51.480;7.594;2022-10-19T10:36:18;7.37;;;1.40;;
25567;SDS011;13455;51.480;7.594;2022-10-19T10:38:51;6.45;;;1.55;;
25567;SDS011;13455;51.480;7.594;2022-10-19T10:41:20;6.47;;;1.50;;
25567;SDS011;13455;51.480;7.594;2022-10-19T10:43:56;5.97;;;1.40;;
25567;SDS011;13455;51.480;7.594;2022-10-19T10:46:27;5.38;;;1.23;;
25567;SDS011;13455;51.480;7.594;2022-10-19T10:49:02;6.67;;;1.50;;
25567;SDS011;13455;51.480;7.594;2022-10-19T10:54:18;5.43;;;1.30;;
25567;SDS011;13455;51.480;7.594;2022-10-19T10:56:55;6.72;;;1.50;;
25567;SDS011;13455;51.480;7.594;2022-10-19T10:59:23;7.10;;;2.00;;
25567;SDS011;13455;51.480;7.594;2022-10-19T11:04:22;4.80;;;1.33;;
25567;SDS011;13455;51.480;7.594;2022-10-19T11:06:52;6.50;;;1.20;;
25567;SDS011;13455;51.480;7.594;2022-10-19T11:11:50;5.82;;;1.50;;
25567;SDS011;13455;51.480;7.594;2022-10-19T11:17:05;6.90;;;1.40;;
25567;SDS011;13455;51.480;7.594;2022-10-19T11:19:34;5.50;;;1.70;;
25567;SDS011;13455;51.480;7.594;2022-10-19T11:50:43;6.30;;;1.30;;
25567;SDS011;13455;51.480;7.594;2022-10-19T12:06:38;4.47;;;1.30;;
25567;SDS011;13455;51.480;7.594;2022-10-19T12:13:57;6.38;;;1.30;;
25567;SDS011;13455;51.480;7.594;2022-10-19T12:16:34;6.90;;;1.60;;
25567;SDS011;13455;51.480;7.594;2022-10-19T12:19:02;6.18;;;1.15;;
25567;SDS011;13455;51.480;7.594;2022-10-19T12:21:30;9.75;;;4.60;;
25567;SDS011;13455;51.480;7.594;2022-10-19T12:23:58;9.07;;;2.80;;
25567;SDS011;13455;51.480;7.594;2022-10-19T12:26:25;5.97;;;1.38;;
25567;SDS011;13455;51.480;7.594;2022-10-19T12:28:57;6.03;;;1.30;;
25567;SDS011;13455;51.480;7.594;2022-10-19T12:31:26;5.70;;;1.40;;
25567;SDS011;13455;51.480;7.594;2022-10-19T12:33:58;4.75;;;1.33;;
25567;SDS011;13455;51.480;7.594;2022-10-19T12:39:11;5.88;;;1.30;;
25567;SDS011;13455;51.480;7.594;2022-10-19T12:47:29;4.28;;;1.08;;
25567;SDS011;13455;51.480;7.594;2022-10-19T12:49:56;4.80;;;1.20;;
25567;SDS011;13455;51.480;7.594;2022-10-19T12:55:42;4.28;;;1.20;;
25567;SDS011;13455;51.480;7.594;2022-10-19T12:57:58;6.80;;;1.27;;
25567;SDS011;13455;51.480;7.594;2022-10-19T13:00:25;4.82;;;1.20;;
25567;SDS011;13455;51.480;7.594;2022-10-19T13:03:00;4.65;;;1.20;;
25567;SDS011;13455;51.480;7.594;2022-10-19T13:05:30;10.05;;;1.40;;
25567;SDS011;13455;51.480;7.594;2022-10-19T13:07:56;6.00;;;1.10;;
25567;SDS011;13455;51.480;7.594;2022-10-19T13:10:24;5.60;;;1.17;;
25567;SDS011;13455;51.480;7.594;2022-10-19T13:12:51;5.70;;;1.20;;
25567;SDS011;13455;51.480;7.594;2022-10-19T13:17:58;4.88;;;1.10;;
25567;SDS011;13455;51.480;7.594;2022-10-19T13:38:27;5.20;;;1.30;;
25567;SDS011;13455;51.480;7.594;2022-10-19T13:51:39;4.10;;;1.30;;
25567;SDS011;13455;51.480;7.594;2022-10-19T13:57:27;4.95;;;1.23;;
25567;SDS011;13455;51.480;7.594;2022-10-19T13:59:29;7.43;;;1.20;;
25567;SDS011;13455;51.480;7.594;2022-10-19T14:02:12;6.43;;;1.43;;
25567;SDS011;13455;51.480;7.594;2022-10-19T14:10:22;5.75;;;1.10;;
25567;SDS011;13455;51.480;7.594;2022-10-19T14:12:48;6.22;;;1.33;;
25567;SDS011;13455;51.480;7.594;2022-10-19T14:17:44;5.15;;;1.27;;
25567;SDS011;13455;51.480;7.594;2022-10-19T14:20:30;7.57;;;1.30;;
25567;SDS011;13455;51.480;7.594;2022-10-19T14:22:57;5.65;;;1.10;;
25567;SDS011;13455;51.480;7.594;2022-10-19T14:25:40;6.85;;;1.48;;
25567;SDS011;13455;51.480;7.594;2022-10-19T14:28:14;5.03;;;1.02;;
25567;SDS011;13455;51.480;7.594;2022-10-19T14:30:41;4.43;;;1.20;;
25567;SDS011;13455;51.480;7.594;2022-10-19T14:33:08;5.95;;;1.10;;
25567;SDS011;13455;51.480;7.594;2022-10-19T14:35:41;5.60;;;1.30;;
25567;SDS011;13455;51.480;7.594;2022-10-19T14:38:13;5.20;;;1.10;;
25567;SDS011;13455;51.480;7.594;2022-10-19T14:41:03;5.37;;;0.93;;
25567;SDS011;13455;51.480;7.594;2022-10-19T14:43:31;4.45;;;1.25;;
25567;SDS011;13455;51.480;7.594;2022-10-19T14:46:01;4.10;;;1.00;;
25567;SDS011;13455;51.480;7.594;2022-10-19T14:48:27;6.57;;;1.00;;
25567;SDS011;13455;51.480;7.594;2022-10-19T14:50:54;5.10;;;1.08;;
25567;SDS011;13455;51.480;7.594;2022-10-19T14:56:10;4.50;;;1.00;;
25567;SDS011;13455;51.480;7.594;2022-10-19T14:58:53;4.00;;;0.90;;
25567;SDS011;13455;51.480;7.594;2022-10-19T15:01:21;3.88;;;0.93;;
25567;SDS011;13455;51.480;7.594;2022-10-19T15:03:47;4.30;;;1.10;;
25567;SDS011;13455;51.480;7.594;2022-10-19T15:08:46;6.43;;;1.35;;
25567;SDS011;13455;51.480;7.594;2022-10-19T15:11:27;4.90;;;1.35;;
25567;SDS011;13455;51.480;7.594;2022-10-19T15:13:55;4.78;;;1.20;;
25567;SDS011;13455;51.480;7.594;2022-10-19T15:16:32;5.68;;;1.38;;
25567;SDS011;13455;51.480;7.594;2022-10-19T15:19:03;4.33;;;1.20;;
25567;SDS011;13455;51.480;7.594;2022-10-19T15:21:30;4.83;;;1.40;;
25567;SDS011;13455;51.480;7.594;2022-10-19T15:24:04;6.10;;;1.40;;
25567;SDS011;13455;51.480;7.594;2022-10-19T15:26:31;6.15;;;1.50;;
25567;SDS011;13455;51.480;7.594;2022-10-19T15:29:07;7.15;;;1.48;;
25567;SDS011;13455;51.480;7.594;2022-10-19T15:31:34;4.03;;;1.20;;
25567;SDS011;13455;51.480;7.594;2022-10-19T15:34:00;5.60;;;1.30;;
25567;SDS011;13455;51.480;7.594;2022-10-19T15:36:27;6.85;;;1.45;;
25567;SDS011;13455;51.480;7.594;2022-10-19T15:41:27;3.38;;;1.50;;
25567;SDS011;13455;51.480;7.594;2022-10-19T15:43:55;4.25;;;1.50;;
25567;SDS011;13455;51.480;7.594;2022-10-19T15:46:31;4.90;;;1.52;;
25567;SDS011;13455;51.480;7.594;2022-10-19T15:51:41;5.43;;;1.77;;
25567;SDS011;13455;51.480;7.594;2022-10-19T15:54:08;5.00;;;1.75;;
25567;SDS011;13455;51.480;7.594;2022-10-19T15:56:36;8.57;;;1.90;;
25567;SDS011;13455;51.480;7.594;2022-10-19T15:59:04;5.03;;;1.80;;
25567;SDS011;13455;51.480;7.594;2022-10-19T16:01:34;6.83;;;2.20;;
25567;SDS011;13455;51.480;7.594;2022-10-19T16:04:00;4.93;;;2.10;;
25567;SDS011;13455;51.480;7.594;2022-10-19T16:06:27;4.47;;;1.80;;
25567;SDS011;13455;51.480;7.594;2022-10-19T16:08:53;6.15;;;1.73;;
25567;SDS011;13455;51.480;7.594;2022-10-19T16:11:20;5.45;;;2.05;;
25567;SDS011;13455;51.480;7.594;2022-10-19T16:13:47;6.40;;;2.40;;
25567;SDS011;13455;51.480;7.594;2022-10-19T16:16:23;4.32;;;2.10;;
25567;SDS011;13455;51.480;7.594;2022-10-19T16:18:51;5.95;;;2.30;;
25567;SDS011;13455;51.480;7.594;2022-10-19T16:21:18;6.97;;;2.23;;
25567;SDS011;13455;51.480;7.594;2022-10-19T16:23:45;5.27;;;2.20;;
25567;SDS011;13455;51.480;7.594;2022-10-19T16:26:12;8.07;;;2.88;;
25567;SDS011;13455;51.480;7.594;2022-10-19T16:28:38;8.02;;;3.00;;
25567;SDS011;13455;51.480;7.594;2022-10-19T16:31:04;5.15;;;2.50;;
25567;SDS011;13455;51.480;7.594;2022-10-19T16:33:30;6.85;;;2.80;;
25567;SDS011;13455;51.480;7.594;2022-10-19T16:35:57;7.28;;;2.80;;
25567;SDS011;13455;51.480;7.594;2022-10-19T16:38:23;7.22;;;2.53;;
25567;SDS011;13455;51.480;7.594;2022-10-19T16:40:48;5.53;;;2.35;;
25567;SDS011;13455;51.480;7.594;2022-10-19T16:43:14;6.80;;;2.40;;
25567;SDS011;13455;51.480;7.594;2022-10-19T16:45:42;6.47;;;2.50;;
25567;SDS011;13455;51.480;7.594;2022-10-19T16:48:10;8.10;;;2.47;;
25567;SDS011;13455;51.480;7.594;2022-10-19T16:50:36;5.65;;;2.33;;
25567;SDS011;13455;51.480;7.594;2022-10-19T16:53:06;8.18;;;2.40;;
25567;SDS011;13455;51.480;7.594;2022-10-19T16:55:36;10.48;;;2.50;;
25567;SDS011;13455;51.480;7.594;2022-10-19T16:58:02;9.53;;;2.37;;
25567;SDS011;13455;51.480;7.594;2022-10-19T17:00:27;7.10;;;2.30;;
25567;SDS011;13455;51.480;7.594;2022-10-19T17:02:53;8.37;;;2.50;;
25567;SDS011;13455;51.480;7.594;2022-10-19T17:05:19;10.02;;;2.30;;
25567;SDS011;13455;51.480;7.594;2022-10-19T17:07:45;8.95;;;2.40;;
25567;SDS011;13455;51.480;7.594;2022-10-19T17:10:11;7.87;;;2.53;;
25567;SDS011;13455;51.480;7.594;2022-10-19T17:12:40;5.90;;;2.60;;
25567;SDS011;13455;51.480;7.594;2022-10-19T17:15:06;8.48;;;2.80;;
25567;SDS011;13455;51.480;7.594;2022-10-19T17:17:32;5.40;;;2.40;;
25567;SDS011;13455;51.480;7.594;2022-10-19T17:19:57;7.93;;;2.67;;
25567;SDS011;13455;51.480;7.594;2022-10-19T17:22:23;10.77;;;2.83;;
25567;SDS011;13455;51.480;7.594;2022-10-19T17:24:49;6.47;;;2.83;;
25567;SDS011;13455;51.480;7.594;2022-10-19T17:27:15;5.83;;;2.77;;
25567;SDS011;13455;51.480;7.594;2022-10-19T17:29:40;7.37;;;2.70;;